createdAt,value
2022-10-03T06:25:15.377Z,100695.50
2022-10-03T06:28:33.230Z,100698.75
2022-10-03T06:31:58.042Z,100714.47
2022-10-03T06:35:29.341Z,100711.69
2022-10-03T06:38:43.173Z,100701.03
2022-10-03T06:42:04.835Z,100706.66
2022-10-03T06:44:56.735Z,100721.28
2022-10-03T06:47:49.735Z,100725.38
2022-10-03T06:50:49.122Z,100725.72
2022-10-03T06:53:46.826Z,100736.72
2022-10-03T06:57:06.215Z,100755.13
2022-10-03T07:00:20.998Z,100746.22
2022-10-03T07:03:39.341Z,100766.63
2022-10-03T07:06:55.197Z,100765.66
2022-10-03T07:10:27.261Z,100761.91
2022-10-03T07:14:11.186Z,100775.19
2022-10-03T07:17:25.332Z,100778.84
2022-10-03T07:20:26.442Z,100787.03
2022-10-03T07:23:37.875Z,100794.72
2022-10-03T07:26:58.379Z,100795.31
2022-10-03T07:30:10.855Z,100800.41
2022-10-03T07:33:26.054Z,100800.94
2022-10-03T07:36:57.564Z,100802.06
2022-10-03T07:40:29.265Z,100801.78
2022-10-03T07:44:02.917Z,100806.88
2022-10-03T07:47:42.070Z,100807.72
2022-10-03T07:51:02.922Z,100808.84
2022-10-03T07:54:18.854Z,100803.75
2022-10-03T07:57:22.233Z,100812.19
2022-10-03T08:00:25.616Z,100823.00
2022-10-03T08:03:56.766Z,100826.91
2022-10-03T08:06:45.266Z,100835.47
2022-10-03T08:09:54.663Z,100852.47
2022-10-03T08:13:14.264Z,100860.47
2022-10-03T08:16:09.430Z,100864.41
2022-10-03T08:19:14.947Z,100868.75
2022-10-03T08:22:08.554Z,100876.91
2022-10-03T08:25:39.524Z,100882.09
2022-10-03T08:28:53.594Z,100883.91
2022-10-03T08:32:05.452Z,100885.75
2022-10-03T08:35:27.082Z,100892.75
2022-10-03T08:38:37.992Z,100905.41
2022-10-03T08:42:11.204Z,100918.03
2022-10-03T08:45:30.355Z,100913.16
2022-10-03T08:48:59.734Z,100925.22
2022-10-03T08:52:12.343Z,100927.94
2022-10-03T08:55:35.023Z,100932.41
2022-10-03T08:58:48.408Z,100931.19
2022-10-03T09:01:53.683Z,100942.16
2022-10-03T09:05:08.463Z,100942.25
2022-10-03T09:09:00.313Z,100948.91
2022-10-03T09:12:22.944Z,100949.75
2022-10-03T09:15:40.445Z,100940.19
2022-10-03T09:18:54.455Z,100946.09
2022-10-03T09:22:00.104Z,100944.59
2022-10-03T09:25:23.091Z,100931.34
2022-10-03T09:28:35.798Z,100929.19
2022-10-03T09:31:43.631Z,100943.72
2022-10-03T09:35:12.114Z,100946.09
2022-10-03T09:38:42.523Z,100952.16
2022-10-03T09:42:10.024Z,100952.44
2022-10-03T09:45:19.346Z,100955.00
2022-10-03T09:48:33.047Z,100944.06
2022-10-03T09:51:36.955Z,100934.66
2022-10-03T09:55:01.934Z,100946.69
2022-10-03T09:58:36.684Z,100947.03
2022-10-03T10:01:28.734Z,100943.66
2022-10-03T10:04:55.252Z,100941.94
2022-10-03T10:08:31.927Z,100931.28
2022-10-03T10:11:34.927Z,100961.38
2022-10-03T10:14:44.913Z,100957.78
2022-10-03T10:18:25.654Z,100971.00
2022-10-03T10:21:43.961Z,100982.53
2022-10-03T10:25:23.475Z,100983.47
2022-10-03T10:29:09.166Z,100993.75
2022-10-03T10:32:44.475Z,100998.47
2022-10-03T10:36:07.020Z,101007.50
2022-10-03T10:39:36.230Z,101015.88
2022-10-03T10:43:04.028Z,101015.28
2022-10-03T10:46:22.211Z,101015.41
2022-10-03T10:50:08.428Z,101017.63
2022-10-03T10:53:37.929Z,101013.22
2022-10-03T10:57:14.581Z,101030.19
2022-10-03T11:00:44.077Z,101023.19
2022-10-03T11:04:13.499Z,101022.88
2022-10-03T11:07:28.622Z,101025.72
2022-10-03T11:10:39.311Z,101020.03
2022-10-03T11:14:13.876Z,101005.66
2022-10-03T11:17:50.569Z,101000.00
2022-10-03T11:21:15.545Z,101006.78
2022-10-03T11:24:44.092Z,101004.34
2022-10-03T11:28:09.110Z,100999.19
2022-10-03T11:31:54.940Z,101003.84
2022-10-03T11:35:34.016Z,101020.75
2022-10-03T11:38:18.517Z,101021.31
2022-10-03T11:41:12.087Z,101031.41
2022-10-03T11:44:18.886Z,101032.34
2022-10-03T11:47:34.875Z,101050.28
2022-10-03T11:50:38.957Z,101052.91
2022-10-03T11:53:30.457Z,101051.91
2022-10-03T11:56:39.915Z,101065.75
2022-10-03T11:59:58.265Z,101057.00
2022-10-03T12:03:00.922Z,101056.84
2022-10-03T12:05:53.146Z,101061.78
2022-10-03T12:08:49.926Z,101061.66
2022-10-03T12:11:30.696Z,101058.69
2022-10-03T12:14:32.777Z,101060.25
2022-10-03T12:17:16.184Z,101059.16
2022-10-03T12:20:06.430Z,101048.81
2022-10-03T12:22:53.612Z,101052.63
2022-10-03T12:25:35.155Z,101056.00
2022-10-03T12:28:24.576Z,101050.66
2022-10-03T12:31:18.961Z,101053.09
2022-10-03T12:34:04.729Z,101060.03
2022-10-03T12:36:54.477Z,101047.16
2022-10-03T12:39:47.116Z,101058.88
2022-10-03T12:42:33.837Z,101050.84
2022-10-03T12:45:27.297Z,101051.84
2022-10-03T12:48:38.146Z,101047.66
2022-10-03T12:51:30.436Z,101047.53
2022-10-03T12:54:25.877Z,101054.06
2022-10-03T12:57:48.072Z,101057.13
2022-10-03T13:00:29.765Z,101051.41
2022-10-03T13:03:39.136Z,101055.78
2022-10-03T13:07:04.084Z,101057.00
2022-10-03T13:10:22.420Z,101051.00
2022-10-03T13:13:19.559Z,101056.91
2022-10-03T13:16:25.422Z,101054.34
2022-10-03T13:19:13.398Z,101050.63
2022-10-03T13:22:08.616Z,101045.50
2022-10-03T13:24:55.055Z,101053.94
2022-10-03T13:27:44.304Z,101056.63
2022-10-03T13:30:27.535Z,101073.22
2022-10-03T13:33:12.344Z,101067.38
2022-10-03T13:36:02.895Z,101074.63
2022-10-03T13:39:07.624Z,101078.63
2022-10-03T13:42:12.699Z,101082.69
2022-10-03T13:44:56.358Z,101083.75
2022-10-03T13:47:48.108Z,101089.63
2022-10-03T13:50:31.575Z,101084.09
2022-10-03T13:53:14.844Z,101084.50
2022-10-03T13:55:58.404Z,101082.91
2022-10-03T13:58:49.205Z,101081.78
2022-10-03T14:01:50.611Z,101081.19
2022-10-03T14:05:12.235Z,101074.66
2022-10-03T14:08:02.875Z,101079.88
2022-10-03T14:11:14.735Z,101081.25
2022-10-03T14:14:14.365Z,101085.00
2022-10-03T14:17:04.464Z,101089.00
2022-10-03T14:20:02.251Z,101083.53
2022-10-03T14:22:54.241Z,101091.63
2022-10-03T14:25:38.547Z,101091.06
2022-10-03T14:28:26.883Z,101104.94
2022-10-03T14:31:16.981Z,101098.25
2022-10-03T14:34:03.236Z,101097.47
2022-10-03T14:36:50.796Z,101094.38
2022-10-03T14:39:42.358Z,101096.38
2022-10-03T14:43:00.217Z,101110.22
2022-10-03T14:45:47.134Z,101110.38
2022-10-03T14:48:31.576Z,101106.88
2022-10-03T14:51:20.270Z,101105.34
2022-10-03T14:54:04.384Z,101103.09
2022-10-03T14:56:50.286Z,101100.13
2022-10-03T14:59:34.696Z,101094.06
2022-10-03T15:02:37.572Z,101096.59
2022-10-03T15:05:25.047Z,101097.16
2022-10-03T15:08:03.355Z,101093.91
2022-10-03T15:10:42.181Z,101094.22
2022-10-03T15:13:22.339Z,101100.38
2022-10-03T15:16:01.068Z,101097.44
2022-10-03T15:18:44.139Z,101108.84
2022-10-03T15:21:22.817Z,101115.03
2022-10-03T15:24:05.779Z,101108.13
2022-10-03T15:26:45.059Z,101107.72
2022-10-03T15:29:23.842Z,101113.91
2022-10-03T15:32:01.640Z,101109.34
2022-10-03T15:34:49.017Z,101110.19
2022-10-03T15:37:34.057Z,101119.56
2022-10-03T15:40:24.869Z,101116.88
2022-10-03T15:43:13.384Z,101121.91
2022-10-03T15:45:50.683Z,101118.34
2022-10-03T15:48:32.075Z,101113.06
2022-10-03T15:51:23.851Z,101127.59
2022-10-03T15:54:05.667Z,101125.19
2022-10-03T15:56:47.411Z,101114.59
2022-10-03T15:59:32.902Z,101120.72
2022-10-03T16:02:21.590Z,101122.91
2022-10-03T16:05:01.795Z,101120.97
2022-10-03T16:07:52.822Z,101124.91
2022-10-03T16:10:36.750Z,101110.13
2022-10-03T16:13:30.801Z,101117.41
2022-10-03T16:16:18.883Z,101114.00
2022-10-03T16:19:10.346Z,101115.25
2022-10-03T16:21:54.504Z,101124.38
2022-10-03T16:24:47.021Z,101107.78
2022-10-03T16:27:28.828Z,101107.41
2022-10-03T16:30:24.617Z,101114.84
2022-10-03T16:33:16.320Z,101111.84
2022-10-03T16:35:57.351Z,101112.09
2022-10-03T16:38:40.209Z,101111.25
2022-10-03T16:41:27.352Z,101109.69
2022-10-03T16:44:11.658Z,101111.50
2022-10-03T16:46:50.001Z,101116.25
2022-10-03T16:49:54.472Z,101112.00
2022-10-03T16:52:38.215Z,101106.06
2022-10-03T16:55:24.378Z,101109.59
2022-10-03T16:58:13.962Z,101103.78
2022-10-03T17:01:26.453Z,101105.50
2022-10-03T17:04:16.365Z,101103.94
2022-10-03T17:06:56.543Z,101104.75
2022-10-03T17:09:44.523Z,101095.06
2022-10-03T17:12:32.152Z,101084.38
2022-10-03T17:15:24.039Z,101082.44
2022-10-03T17:18:09.935Z,101093.34
2022-10-03T17:20:51.324Z,101085.88
2022-10-03T17:23:36.609Z,101087.44
2022-10-03T17:26:21.471Z,101080.06
2022-10-03T17:29:05.922Z,101079.94
2022-10-03T17:31:54.651Z,101069.63
2022-10-03T17:34:40.781Z,101076.69
2022-10-03T17:37:55.460Z,101075.69
2022-10-03T17:40:53.474Z,101079.47
2022-10-03T17:43:40.645Z,101079.47
